HBBA

Bujumbura International Airport

Bujumbura, Burundi
METAR HBBA 160700Z 20008KT 9999 FEW025TCU BKN10027/22 Q1015 NOSIG
Observed Flight Rules
Dec-16 @ 07:00 UTC (8 hours ago) Visual Flight Rules
Wind Visibility Clouds
200° at 8 knots 10,000+ meters
  • Few at 2,500' AGL
Temperatures Readings
Current 27°C / 81°F
Dewpoint 22°C / 72°F
Humidity 74%
Altimeter 29.97" Hg
Pressure 1015 hPa
Elevation 783
METAR HBBA 160700Z 20008KT 9999 FEW025TCU BKN10027/22 Q1015 NOSIG
Observed Flight Rules
Dec-16 @ 07:00 UTC
(8 hours ago)
VFR
Wind Visibility
200° at 8 knots 10,000+ meters
Clouds
  • Few at 2,500' AGL
Temperature Dewpoint
27°C / 81°F 22°C / 72°F
Humidity Altimeter Pressure
74% 29.97" Hg 1015 hPa